sensor_id;sensor_type;location;lat;lon;timestamp;pressure;altitude;pressure_sealevel;temperature;humidity
18436;BME280;9346;52.006;4.720;2023-02-19T00:01:40;101723.94;;;10.97;100.00
18436;BME280;9346;52.006;4.720;2023-02-19T00:04:11;101729.97;;;10.94;100.00
18436;BME280;9346;52.006;4.720;2023-02-19T00:06:39;101731.31;;;10.91;100.00
18436;BME280;9346;52.006;4.720;2023-02-19T00:09:08;101730.72;;;10.89;100.00
18436;BME280;9346;52.006;4.720;2023-02-19T00:11:37;101728.81;;;10.90;100.00
18436;BME280;9346;52.006;4.720;2023-02-19T00:14:05;101733.50;;;10.89;100.00
18436;BME280;9346;52.006;4.720;2023-02-19T00:16:34;101740.09;;;10.88;100.00
18436;BME280;9346;52.006;4.720;2023-02-19T00:19:03;101736.50;;;10.88;100.00
18436;BME280;9346;52.006;4.720;2023-02-19T00:21:31;101738.94;;;10.84;100.00
18436;BME280;9346;52.006;4.720;2023-02-19T00:24:00;101732.84;;;10.82;100.00
18436;BME280;9346;52.006;4.720;2023-02-19T00:26:29;101740.28;;;10.82;100.00
18436;BME280;9346;52.006;4.720;2023-02-19T00:28:56;101732.84;;;10.82;100.00
18436;BME280;9346;52.006;4.720;2023-02-19T00:31:25;101734.19;;;10.80;100.00
18436;BME280;9346;52.006;4.720;2023-02-19T00:33:54;101731.44;;;10.80;100.00
18436;BME280;9346;52.006;4.720;2023-02-19T00:36:22;101736.69;;;10.81;100.00
18436;BME280;9346;52.006;4.720;2023-02-19T00:38:50;101748.28;;;10.83;100.00
18436;BME280;9346;52.006;4.720;2023-02-19T00:41:18;101745.28;;;10.85;100.00
18436;BME280;9346;52.006;4.720;2023-02-19T00:43:49;101741.97;;;10.83;100.00
18436;BME280;9346;52.006;4.720;2023-02-19T00:46:18;101745.78;;;10.82;100.00
18436;BME280;9346;52.006;4.720;2023-02-19T00:48:45;101742.22;;;10.81;100.00
18436;BME280;9346;52.006;4.720;2023-02-19T00:51:13;101741.13;;;10.82;100.00
18436;BME280;9346;52.006;4.720;2023-02-19T00:53:40;101744.97;;;10.81;100.00
18436;BME280;9346;52.006;4.720;2023-02-19T00:56:08;101744.72;;;10.83;100.00
18436;BME280;9346;52.006;4.720;2023-02-19T00:58:35;101747.22;;;10.84;100.00
18436;BME280;9346;52.006;4.720;2023-02-19T01:01:05;101751.88;;;10.84;100.00
18436;BME280;9346;52.006;4.720;2023-02-19T01:03:33;101747.22;;;10.84;100.00
18436;BME280;9346;52.006;4.720;2023-02-19T01:06:00;101759.06;;;10.85;100.00
18436;BME280;9346;52.006;4.720;2023-02-19T01:08:28;101752.44;;;10.86;100.00
18436;BME280;9346;52.006;4.720;2023-02-19T01:10:56;101759.66;;;10.87;100.00
18436;BME280;9346;52.006;4.720;2023-02-19T01:13:23;101762.41;;;10.87;100.00
18436;BME280;9346;52.006;4.720;2023-02-19T01:15:50;101758.56;;;10.88;100.00
18436;BME280;9346;52.006;4.720;2023-02-19T01:18:19;101760.22;;;10.89;100.00
18436;BME280;9346;52.006;4.720;2023-02-19T01:20:46;101755.53;;;10.89;100.00
18436;BME280;9346;52.006;4.720;2023-02-19T01:23:13;101757.19;;;10.90;100.00
18436;BME280;9346;52.006;4.720;2023-02-19T01:25:41;101760.81;;;10.91;100.00
18436;BME280;9346;52.006;4.720;2023-02-19T01:28:10;101760.53;;;10.92;100.00
18436;BME280;9346;52.006;4.720;2023-02-19T01:30:37;101758.63;;;10.93;100.00
18436;BME280;9346;52.006;4.720;2023-02-19T01:33:05;101757.53;;;10.94;100.00
18436;BME280;9346;52.006;4.720;2023-02-19T01:35:38;101758.38;;;10.94;100.00
18436;BME280;9346;52.006;4.720;2023-02-19T01:38:05;101766.41;;;10.96;100.00
18436;BME280;9346;52.006;4.720;2023-02-19T01:40:32;101759.19;;;10.95;100.00
18436;BME280;9346;52.006;4.720;2023-02-19T01:42:59;101758.13;;;10.96;100.00
18436;BME280;9346;52.006;4.720;2023-02-19T01:45:29;101758.94;;;10.96;100.00
18436;BME280;9346;52.006;4.720;2023-02-19T01:48:06;101758.69;;;10.98;100.00
18436;BME280;9346;52.006;4.720;2023-02-19T01:50:41;101757.63;;;10.99;100.00
18436;BME280;9346;52.006;4.720;2023-02-19T01:53:11;101762.84;;;11.00;100.00
18436;BME280;9346;52.006;4.720;2023-02-19T01:55:40;101754.88;;;10.99;100.00
18436;BME280;9346;52.006;4.720;2023-02-19T01:58:08;101758.19;;;11.01;100.00
18436;BME280;9346;52.006;4.720;2023-02-19T02:00:36;101763.69;;;11.01;100.00
18436;BME280;9346;52.006;4.720;2023-02-19T02:03:03;101759.03;;;11.01;100.00
18436;BME280;9346;52.006;4.720;2023-02-19T02:05:43;101756.28;;;11.01;100.00
18436;BME280;9346;52.006;4.720;2023-02-19T02:08:13;101765.34;;;11.02;100.00
18436;BME280;9346;52.006;4.720;2023-02-19T02:10:58;101769.22;;;11.01;100.00
18436;BME280;9346;52.006;4.720;2023-02-19T02:13:25;101773.88;;;11.00;100.00
18436;BME280;9346;52.006;4.720;2023-02-19T02:15:59;101768.38;;;11.00;100.00
18436;BME280;9346;52.006;4.720;2023-02-19T02:18:40;101766.44;;;11.01;100.00
18436;BME280;9346;52.006;4.720;2023-02-19T02:21:32;101773.88;;;11.00;100.00
18436;BME280;9346;52.006;4.720;2023-02-19T02:24:10;101759.53;;;10.98;100.00
18436;BME280;9346;52.006;4.720;2023-02-19T02:26:51;101773.06;;;11.00;100.00
18436;BME280;9346;52.006;4.720;2023-02-19T02:32:43;101776.06;;;10.98;100.00
18436;BME280;9346;52.006;4.720;2023-02-19T02:35:20;101765.06;;;10.98;100.00
18436;BME280;9346;52.006;4.720;2023-02-19T02:37:48;101764.78;;;11.00;100.00
18436;BME280;9346;52.006;4.720;2023-02-19T02:40:17;101772.22;;;10.99;100.00
18436;BME280;9346;52.006;4.720;2023-02-19T02:42:44;101766.44;;;11.01;100.00
18436;BME280;9346;52.006;4.720;2023-02-19T02:45:22;101773.63;;;11.02;100.00
18436;BME280;9346;52.006;4.720;2023-02-19T02:48:23;101784.41;;;11.03;100.00
18436;BME280;9346;52.006;4.720;2023-02-19T02:50:55;101786.34;;;11.03;100.00
18436;BME280;9346;52.006;4.720;2023-02-19T02:53:27;101779.72;;;11.04;100.00
18436;BME280;9346;52.006;4.720;2023-02-19T02:56:14;101776.38;;;11.02;100.00
18436;BME280;9346;52.006;4.720;2023-02-19T02:58:43;101791.25;;;11.01;100.00
18436;BME280;9346;52.006;4.720;2023-02-19T03:01:16;101792.63;;;10.98;100.00
18436;BME280;9346;52.006;4.720;2023-02-19T03:04:07;101797.78;;;10.95;100.00
18436;BME280;9346;52.006;4.720;2023-02-19T03:06:36;101791.72;;;10.93;100.00
18436;BME280;9346;52.006;4.720;2023-02-19T03:09:09;101797.22;;;10.93;100.00
18436;BME280;9346;52.006;4.720;2023-02-19T03:11:40;101796.63;;;10.91;100.00
18436;BME280;9346;52.006;4.720;2023-02-19T03:14:30;101806.81;;;10.90;100.00
18436;BME280;9346;52.006;4.720;2023-02-19T03:17:21;101812.06;;;10.92;100.00
18436;BME280;9346;52.006;4.720;2023-02-19T03:20:11;101812.91;;;10.92;100.00
18436;BME280;9346;52.006;4.720;2023-02-19T03:22:41;101808.25;;;10.93;100.00
18436;BME280;9346;52.006;4.720;2023-02-19T03:25:12;101809.56;;;10.90;100.00
18436;BME280;9346;52.006;4.720;2023-02-19T03:28:02;101824.19;;;10.91;100.00
18436;BME280;9346;52.006;4.720;2023-02-19T03:30:31;101831.06;;;10.88;100.00
18436;BME280;9346;52.006;4.720;2023-02-19T03:33:02;101833.22;;;10.86;100.00
18436;BME280;9346;52.006;4.720;2023-02-19T03:35:36;101831.81;;;10.84;100.00
18436;BME280;9346;52.006;4.720;2023-02-19T03:38:08;101831.22;;;10.82;100.00
18436;BME280;9346;52.006;4.720;2023-02-19T03:40:43;101845.00;;;10.82;100.00
18436;BME280;9346;52.006;4.720;2023-02-19T03:43:16;101836.16;;;10.80;100.00
18436;BME280;9346;52.006;4.720;2023-02-19T03:45:52;101839.44;;;10.77;100.00
18436;BME280;9346;52.006;4.720;2023-02-19T03:48:27;101849.00;;;10.74;100.00
18436;BME280;9346;52.006;4.720;2023-02-19T03:51:13;101853.09;;;10.72;100.00
18436;BME280;9346;52.006;4.720;2023-02-19T03:53:50;101850.34;;;10.72;100.00
18436;BME280;9346;52.006;4.720;2023-02-19T03:56:24;101863.28;;;10.71;100.00
18436;BME280;9346;52.006;4.720;2023-02-19T03:58:56;101865.22;;;10.71;100.00
18436;BME280;9346;52.006;4.720;2023-02-19T04:01:29;101863.22;;;10.66;100.00
18436;BME280;9346;52.006;4.720;2023-02-19T04:04:02;101869.81;;;10.65;100.00
18436;BME280;9346;52.006;4.720;2023-02-19T04:06:36;101865.63;;;10.63;100.00
18436;BME280;9346;52.006;4.720;2023-02-19T04:09:06;101869.47;;;10.62;100.00
18436;BME280;9346;52.006;4.720;2023-02-19T04:11:36;101872.47;;;10.60;100.00
18436;BME280;9346;52.006;4.720;2023-02-19T04:14:07;101872.47;;;10.60;100.00
18436;BME280;9346;52.006;4.720;2023-02-19T04:16:38;101865.56;;;10.58;100.00
18436;BME280;9346;52.006;4.720;2023-02-19T04:19:09;101876.31;;;10.59;100.00
18436;BME280;9346;52.006;4.720;2023-02-19T04:21:39;101872.72;;;10.59;100.00
18436;BME280;9346;52.006;4.720;2023-02-19T04:24:11;101874.63;;;10.58;100.00
18436;BME280;9346;52.006;4.720;2023-02-19T04:26:41;101882.91;;;10.58;100.00
18436;BME280;9346;52.006;4.720;2023-02-19T04:29:09;101877.16;;;10.60;100.00
18436;BME280;9346;52.006;4.720;2023-02-19T04:31:37;101882.66;;;10.60;100.00
18436;BME280;9346;52.006;4.720;2023-02-19T04:34:04;101886.50;;;10.59;100.00
18436;BME280;9346;52.006;4.720;2023-02-19T04:36:31;101893.09;;;10.58;100.00
18436;BME280;9346;52.006;4.720;2023-02-19T04:39:00;101901.13;;;10.59;100.00
18436;BME280;9346;52.006;4.720;2023-02-19T04:41:27;101914.31;;;10.57;100.00
18436;BME280;9346;52.006;4.720;2023-02-19T04:43:54;101914.31;;;10.57;100.00
18436;BME280;9346;52.006;4.720;2023-02-19T04:46:21;101924.47;;;10.57;100.00
18436;BME280;9346;52.006;4.720;2023-02-19T04:48:48;101926.41;;;10.56;100.00
18436;BME280;9346;52.006;4.720;2023-02-19T04:51:15;101935.50;;;10.57;100.00
18436;BME280;9346;52.006;4.720;2023-02-19T04:53:42;101929.41;;;10.55;100.00
18436;BME280;9346;52.006;4.720;2023-02-19T04:56:13;101928.25;;;10.51;100.00
18436;BME280;9346;52.006;4.720;2023-02-19T04:58:41;101933.75;;;10.51;100.00
18436;BME280;9346;52.006;4.720;2023-02-19T05:01:08;101928.75;;;10.48;100.00
18436;BME280;9346;52.006;4.720;2023-02-19T05:03:36;101930.66;;;10.47;100.00
18436;BME280;9346;52.006;4.720;2023-02-19T05:06:04;101937.00;;;10.48;100.00
18436;BME280;9346;52.006;4.720;2023-02-19T05:08:32;101940.81;;;10.47;100.00
18436;BME280;9346;52.006;4.720;2023-02-19T05:11:00;101942.28;;;10.49;100.00
18436;BME280;9346;52.006;4.720;2023-02-19T05:13:30;101952.69;;;10.47;100.00
18436;BME280;9346;52.006;4.720;2023-02-19T05:15:59;101949.09;;;10.47;100.00
18436;BME280;9346;52.006;4.720;2023-02-19T05:18:26;101957.59;;;10.45;100.00
18436;BME280;9346;52.006;4.720;2023-02-19T05:20:53;101962.28;;;10.45;100.00
18436;BME280;9346;52.006;4.720;2023-02-19T05:23:20;101962.28;;;10.45;100.00
18436;BME280;9346;52.006;4.720;2023-02-19T05:25:47;101965.63;;;10.47;100.00
18436;BME280;9346;52.006;4.720;2023-02-19T05:28:14;101962.53;;;10.43;100.00
18436;BME280;9346;52.006;4.720;2023-02-19T05:30:48;101972.94;;;10.41;100.00
18436;BME280;9346;52.006;4.720;2023-02-19T05:33:16;101963.03;;;10.40;100.00
18436;BME280;9346;52.006;4.720;2023-02-19T05:35:45;101975.38;;;10.38;100.00
18436;BME280;9346;52.006;4.720;2023-02-19T05:38:12;101974.78;;;10.36;100.00
18436;BME280;9346;52.006;4.720;2023-02-19T05:40:39;101961.50;;;10.33;100.00
18436;BME280;9346;52.006;4.720;2023-02-19T05:43:07;101962.59;;;10.32;100.00
18436;BME280;9346;52.006;4.720;2023-02-19T05:45:34;101969.41;;;10.29;100.00
18436;BME280;9346;52.006;4.720;2023-02-19T05:48:04;101973.00;;;10.30;100.00
18436;BME280;9346;52.006;4.720;2023-02-19T05:50:33;101974.66;;;10.31;100.00
18436;BME280;9346;52.006;4.720;2023-02-19T05:53:00;101973.84;;;10.30;100.00
18436;BME280;9346;52.006;4.720;2023-02-19T05:55:28;101971.91;;;10.31;100.00
18436;BME280;9346;52.006;4.720;2023-02-19T05:57:56;101981.00;;;10.31;100.00
18436;BME280;9346;52.006;4.720;2023-02-19T06:00:22;101984.63;;;10.32;100.00
18436;BME280;9346;52.006;4.720;2023-02-19T06:02:51;101977.16;;;10.32;100.00
18436;BME280;9346;52.006;4.720;2023-02-19T06:05:20;101988.44;;;10.31;100.00
18436;BME280;9346;52.006;4.720;2023-02-19T06:07:47;101997.28;;;10.33;100.00
18436;BME280;9346;52.006;4.720;2023-02-19T06:10:16;101999.81;;;10.34;100.00
18436;BME280;9346;52.006;4.720;2023-02-19T06:12:43;102003.41;;;10.35;100.00
18436;BME280;9346;52.006;4.720;2023-02-19T06:15:10;102012.72;;;10.34;100.00
18436;BME280;9346;52.006;4.720;2023-02-19T06:17:37;102008.91;;;10.35;100.00
18436;BME280;9346;52.006;4.720;2023-02-19T06:20:04;102018.47;;;10.32;100.00
18436;BME280;9346;52.006;4.720;2023-02-19T06:22:33;102013.69;;;10.28;100.00
18436;BME280;9346;52.006;4.720;2023-02-19T06:25:00;102029.03;;;10.24;100.00
18436;BME280;9346;52.006;4.720;2023-02-19T06:27:28;102036.72;;;10.22;100.00
18436;BME280;9346;52.006;4.720;2023-02-19T06:29:55;102035.28;;;10.19;100.00
18436;BME280;9346;52.006;4.720;2023-02-19T06:32:22;102039.38;;;10.17;100.00
18436;BME280;9346;52.006;4.720;2023-02-19T06:34:48;102038.75;;;10.15;100.00
18436;BME280;9346;52.006;4.720;2023-02-19T06:37:15;102039.00;;;10.13;100.00
18436;BME280;9346;52.006;4.720;2023-02-19T06:39:44;102040.94;;;10.13;100.00
18436;BME280;9346;52.006;4.720;2023-02-19T06:42:11;102051.94;;;10.13;100.00
18436;BME280;9346;52.006;4.720;2023-02-19T06:44:38;102050.88;;;10.14;100.00
18436;BME280;9346;52.006;4.720;2023-02-19T06:47:04;102043.44;;;10.14;100.00
18436;BME280;9346;52.006;4.720;2023-02-19T06:49:31;102060.22;;;10.13;100.00
18436;BME280;9346;52.006;4.720;2023-02-19T06:51:58;102058.50;;;10.12;100.00
18436;BME280;9346;52.006;4.720;2023-02-19T06:54:26;102055.75;;;10.12;100.00
18436;BME280;9346;52.006;4.720;2023-02-19T06:56:54;102059.84;;;10.09;100.00
18436;BME280;9346;52.006;4.720;2023-02-19T06:59:24;102053.75;;;10.07;100.00
18436;BME280;9346;52.006;4.720;2023-02-19T07:01:51;102066.44;;;10.08;100.00
18436;BME280;9346;52.006;4.720;2023-02-19T07:04:19;102070.03;;;10.09;100.00
18436;BME280;9346;52.006;4.720;2023-02-19T07:06:45;102074.94;;;10.07;100.00
18436;BME280;9346;52.006;4.720;2023-02-19T07:09:12;102077.69;;;10.07;100.00
18436;BME280;9346;52.006;4.720;2023-02-19T07:11:39;102093.56;;;10.05;100.00
18436;BME280;9346;52.006;4.720;2023-02-19T07:14:14;102094.41;;;10.05;100.00
18436;BME280;9346;52.006;4.720;2023-02-19T07:16:41;102094.03;;;10.02;100.00
18436;BME280;9346;52.006;4.720;2023-02-19T07:19:08;102105.06;;;10.02;100.00
18436;BME280;9346;52.006;4.720;2023-02-19T07:21:35;102115.50;;;10.00;100.00
18436;BME280;9346;52.006;4.720;2023-02-19T07:24:03;102109.38;;;9.98;100.00
18436;BME280;9346;52.006;4.720;2023-02-19T07:26:30;102124.22;;;9.97;100.00
18436;BME280;9346;52.006;4.720;2023-02-19T07:28:58;102125.53;;;9.94;100.00
18436;BME280;9346;52.006;4.720;2023-02-19T07:31:26;102130.19;;;9.94;100.00
18436;BME280;9346;52.006;4.720;2023-02-19T07:33:54;102130.44;;;9.92;100.00
18436;BME280;9346;52.006;4.720;2023-02-19T07:36:22;102135.34;;;9.90;100.00
18436;BME280;9346;52.006;4.720;2023-02-19T07:38:53;102142.16;;;9.88;100.00
18436;BME280;9346;52.006;4.720;2023-02-19T07:41:21;102149.81;;;9.86;100.00
18436;BME280;9346;52.006;4.720;2023-02-19T07:43:48;102151.75;;;9.85;100.00
18436;BME280;9346;52.006;4.720;2023-02-19T07:46:15;102160.72;;;9.81;100.00
18436;BME280;9346;52.006;4.720;2023-02-19T07:48:44;102160.72;;;9.81;100.00
18436;BME280;9346;52.006;4.720;2023-02-19T07:51:13;102165.13;;;9.82;100.00
18436;BME280;9346;52.006;4.720;2023-02-19T07:53:46;102175.31;;;9.81;100.00
18436;BME280;9346;52.006;4.720;2023-02-19T07:56:14;102175.31;;;9.81;100.00
18436;BME280;9346;52.006;4.720;2023-02-19T07:58:42;102177.22;;;9.81;100.00
18436;BME280;9346;52.006;4.720;2023-02-19T08:01:13;102183.81;;;9.80;100.00
18436;BME280;9346;52.006;4.720;2023-02-19T08:03:41;102186.56;;;9.80;100.00
18436;BME280;9346;52.006;4.720;2023-02-19T08:06:09;102188.47;;;9.79;100.00
18436;BME280;9346;52.006;4.720;2023-02-19T08:08:37;102187.63;;;9.79;100.00
18436;BME280;9346;52.006;4.720;2023-02-19T08:11:05;102197.56;;;9.80;100.00
18436;BME280;9346;52.006;4.720;2023-02-19T08:13:49;102196.47;;;9.81;100.00
18436;BME280;9346;52.006;4.720;2023-02-19T08:16:18;102198.63;;;9.79;100.00
18436;BME280;9346;52.006;4.720;2023-02-19T08:18:45;102199.72;;;9.78;100.00
18436;BME280;9346;52.006;4.720;2023-02-19T08:21:14;102199.72;;;9.78;100.00
18436;BME280;9346;52.006;4.720;2023-02-19T08:23:44;102202.47;;;9.78;100.00
18436;BME280;9346;52.006;4.720;2023-02-19T08:26:12;102218.97;;;9.78;100.00
18436;BME280;9346;52.006;4.720;2023-02-19T08:28:39;102207.59;;;9.74;100.00
18436;BME280;9346;52.006;4.720;2023-02-19T08:31:08;102205.44;;;9.76;100.00
18436;BME280;9346;52.006;4.720;2023-02-19T08:33:36;102210.72;;;9.78;100.00
18436;BME280;9346;52.006;4.720;2023-02-19T08:36:04;102217.88;;;9.79;100.00
18436;BME280;9346;52.006;4.720;2023-02-19T08:38:34;102222.34;;;9.80;100.00
18436;BME280;9346;52.006;4.720;2023-02-19T08:41:05;102229.75;;;9.79;100.00
18436;BME280;9346;52.006;4.720;2023-02-19T08:43:33;102237.63;;;9.76;100.00
18436;BME280;9346;52.006;4.720;2023-02-19T08:46:00;102237.84;;;9.74;100.00
18436;BME280;9346;52.006;4.720;2023-02-19T08:48:28;102230.44;;;9.75;100.00
18436;BME280;9346;52.006;4.720;2023-02-19T08:50:56;102230.06;;;9.71;100.00
18436;BME280;9346;52.006;4.720;2023-02-19T08:53:23;102232.22;;;9.69;100.00
18436;BME280;9346;52.006;4.720;2023-02-19T08:55:52;102229.84;;;9.73;100.00
18436;BME280;9346;52.006;4.720;2023-02-19T08:58:19;102229.25;;;9.71;100.00
18436;BME280;9346;52.006;4.720;2023-02-19T09:00:46;102229.34;;;9.76;100.00
18436;BME280;9346;52.006;4.720;2023-02-19T09:03:13;102229.34;;;9.76;100.00
18436;BME280;9346;52.006;4.720;2023-02-19T09:05:40;102228.53;;;9.75;100.00
18436;BME280;9346;52.006;4.720;2023-02-19T09:08:08;102220.88;;;9.77;100.00
18436;BME280;9346;52.006;4.720;2023-02-19T09:10:35;102235.47;;;9.78;100.00
18436;BME280;9346;52.006;4.720;2023-02-19T09:13:05;102240.75;;;9.79;100.00
18436;BME280;9346;52.006;4.720;2023-02-19T09:15:32;102247.09;;;9.80;100.00
18436;BME280;9346;52.006;4.720;2023-02-19T09:17:59;102247.69;;;9.82;100.00
18436;BME280;9346;52.006;4.720;2023-02-19T09:20:26;102248.78;;;9.81;100.00
18436;BME280;9346;52.006;4.720;2023-02-19T09:22:56;102255.72;;;9.83;100.00
18436;BME280;9346;52.006;4.720;2023-02-19T09:25:23;102250.22;;;9.83;100.00
18436;BME280;9346;52.006;4.720;2023-02-19T09:27:53;102253.81;;;9.84;100.00
18436;BME280;9346;52.006;4.720;2023-02-19T09:30:22;102280.63;;;9.88;100.00
18436;BME280;9346;52.006;4.720;2023-02-19T09:32:49;102282.69;;;9.93;100.00
18436;BME280;9346;52.006;4.720;2023-02-19T09:35:16;102281.72;;;9.99;100.00
18436;BME280;9346;52.006;4.720;2023-02-19T09:37:43;102284.00;;;10.02;100.00
18436;BME280;9346;52.006;4.720;2023-02-19T09:40:10;102292.25;;;10.02;100.00
18436;BME280;9346;52.006;4.720;2023-02-19T09:42:40;102289.50;;;10.02;100.00
18436;BME280;9346;52.006;4.720;2023-02-19T09:45:12;102282.94;;;10.03;100.00
18436;BME280;9346;52.006;4.720;2023-02-19T09:47:43;102290.72;;;10.06;100.00
18436;BME280;9346;52.006;4.720;2023-02-19T09:50:15;102299.75;;;10.13;100.00
18436;BME280;9346;52.006;4.720;2023-02-19T09:52:44;102303.47;;;10.18;100.00
18436;BME280;9346;52.006;4.720;2023-02-19T09:55:17;102302.75;;;10.23;100.00
18436;BME280;9346;52.006;4.720;2023-02-19T09:57:46;102295.94;;;10.25;100.00
18436;BME280;9346;52.006;4.720;2023-02-19T10:00:20;102307.31;;;10.29;100.00
18436;BME280;9346;52.006;4.720;2023-02-19T10:02:53;102320.63;;;10.32;100.00
18436;BME280;9346;52.006;4.720;2023-02-19T10:05:22;102320.38;;;10.33;100.00
18436;BME280;9346;52.006;4.720;2023-02-19T10:07:51;102312.38;;;10.32;100.00
18436;BME280;9346;52.006;4.720;2023-02-19T10:10:26;102313.06;;;10.27;100.00
18436;BME280;9346;52.006;4.720;2023-02-19T10:13:04;102322.03;;;10.23;100.00
18436;BME280;9346;52.006;4.720;2023-02-19T10:15:38;102326.34;;;10.19;100.00
18436;BME280;9346;52.006;4.720;2023-02-19T10:18:09;102324.66;;;10.18;100.00
18436;BME280;9346;52.006;4.720;2023-02-19T10:20:38;102319.13;;;10.18;100.00
18436;BME280;9346;52.006;4.720;2023-02-19T10:23:07;102328.47;;;10.17;100.00
18436;BME280;9346;52.006;4.720;2023-02-19T10:25:40;102333.53;;;10.20;100.00
18436;BME280;9346;52.006;4.720;2023-02-19T10:28:09;102344.69;;;10.25;100.00
18436;BME280;9346;52.006;4.720;2023-02-19T10:30:37;102346.94;;;10.28;100.00
18436;BME280;9346;52.006;4.720;2023-02-19T10:33:10;102350.78;;;10.27;100.00
18436;BME280;9346;52.006;4.720;2023-02-19T10:35:50;102347.78;;;10.28;100.00
18436;BME280;9346;52.006;4.720;2023-02-19T10:38:20;102350.78;;;10.27;100.00
18436;BME280;9346;52.006;4.720;2023-02-19T10:40:51;102356.75;;;10.24;100.00
18436;BME280;9346;52.006;4.720;2023-02-19T10:43:25;102356.28;;;10.27;100.00
18436;BME280;9346;52.006;4.720;2023-02-19T10:46:00;102359.88;;;10.27;100.00
18436;BME280;9346;52.006;4.720;2023-02-19T10:48:31;102363.47;;;10.28;100.00
18436;BME280;9346;52.006;4.720;2023-02-19T10:51:04;102370.28;;;10.25;100.00
18436;BME280;9346;52.006;4.720;2023-02-19T10:53:39;102372.47;;;10.23;100.00
18436;BME280;9346;52.006;4.720;2023-02-19T10:56:09;102370.75;;;10.22;100.00
18436;BME280;9346;52.006;4.720;2023-02-19T10:58:37;102373.50;;;10.22;100.00
18436;BME280;9346;52.006;4.720;2023-02-19T11:01:12;102367.78;;;10.24;100.00
18436;BME280;9346;52.006;4.720;2023-02-19T11:03:42;102368.63;;;10.24;100.00
18436;BME280;9346;52.006;4.720;2023-02-19T11:06:10;102370.06;;;10.27;100.00
18436;BME280;9346;52.006;4.720;2023-02-19T11:08:47;102372.72;;;10.33;100.00
18436;BME280;9346;52.006;4.720;2023-02-19T11:11:23;102371.16;;;10.37;100.00
18436;BME280;9346;52.006;4.720;2023-02-19T11:13:53;102357.16;;;10.39;100.00
18436;BME280;9346;52.006;4.720;2023-02-19T11:16:21;102365.53;;;10.44;100.00
18436;BME280;9346;52.006;4.720;2023-02-19T11:18:55;102362.69;;;10.50;100.00
18436;BME280;9346;52.006;4.720;2023-02-19T11:21:25;102365.59;;;10.55;100.00
18436;BME280;9346;52.006;4.720;2023-02-19T11:23:57;102356.09;;;10.63;100.00
18436;BME280;9346;52.006;4.720;2023-02-19T11:26:27;102359.00;;;10.68;100.00
18436;BME280;9346;52.006;4.720;2023-02-19T11:28:57;102353.25;;;10.69;100.00
18436;BME280;9346;52.006;4.720;2023-02-19T11:31:26;102357.91;;;10.69;100.00
18436;BME280;9346;52.006;4.720;2023-02-19T11:33:58;102360.66;;;10.69;100.00
18436;BME280;9346;52.006;4.720;2023-02-19T11:36:31;102356.84;;;10.70;100.00
18436;BME280;9346;52.006;4.720;2023-02-19T11:39:06;102367.03;;;10.69;100.00
18436;BME280;9346;52.006;4.720;2023-02-19T11:44:38;102361.38;;;10.64;100.00
18436;BME280;9346;52.006;4.720;2023-02-19T11:50:17;102352.28;;;10.64;100.00
18436;BME280;9346;52.006;4.720;2023-02-19T11:52:58;102351.06;;;10.60;100.00
18436;BME280;9346;52.006;4.720;2023-02-19T11:55:36;102341.59;;;10.56;100.00
18436;BME280;9346;52.006;4.720;2023-02-19T11:58:25;102347.34;;;10.54;100.00
18436;BME280;9346;52.006;4.720;2023-02-19T12:01:02;102355.13;;;10.46;100.00
18436;BME280;9346;52.006;4.720;2023-02-19T12:03:47;102363.28;;;10.41;100.00
18436;BME280;9346;52.006;4.720;2023-02-19T12:06:28;102363.75;;;10.38;100.00
18436;BME280;9346;52.006;4.720;2023-02-19T12:09:23;102371.88;;;10.33;100.00
18436;BME280;9346;52.006;4.720;2023-02-19T12:12:02;102374.84;;;10.31;100.00
18436;BME280;9346;52.006;4.720;2023-02-19T12:14:54;102383.34;;;10.30;100.00
18436;BME280;9346;52.006;4.720;2023-02-19T12:17:40;102384.91;;;10.26;100.00
18436;BME280;9346;52.006;4.720;2023-02-19T12:20:18;102381.31;;;10.25;100.00
18436;BME280;9346;52.006;4.720;2023-02-19T12:23:03;102385.13;;;10.24;100.00
18436;BME280;9346;52.006;4.720;2023-02-19T12:25:44;102375.69;;;10.20;100.00
18436;BME280;9346;52.006;4.720;2023-02-19T12:28:28;102376.66;;;10.26;100.00
18436;BME280;9346;52.006;4.720;2023-02-19T12:31:29;102385.03;;;10.31;100.00
18436;BME280;9346;52.006;4.720;2023-02-19T12:34:15;102391.16;;;10.33;100.00
18436;BME280;9346;52.006;4.720;2023-02-19T12:36:51;102397.28;;;10.35;100.00
18436;BME280;9346;52.006;4.720;2023-02-19T12:39:31;102393.66;;;10.34;100.00
18436;BME280;9346;52.006;4.720;2023-02-19T12:42:09;102394.06;;;10.38;100.00
18436;BME280;9346;52.006;4.720;2023-02-19T12:44:44;102396.91;;;10.43;100.00
18436;BME280;9346;52.006;4.720;2023-02-19T12:47:16;102402.81;;;10.46;100.00
18436;BME280;9346;52.006;4.720;2023-02-19T12:49:47;102403.88;;;10.45;100.00
18436;BME280;9346;52.006;4.720;2023-02-19T12:52:18;102400.28;;;10.45;100.00
18436;BME280;9346;52.006;4.720;2023-02-19T12:54:52;102404.94;;;10.44;100.00
18436;BME280;9346;52.006;4.720;2023-02-19T12:57:21;102426.53;;;10.47;100.00
18436;BME280;9346;52.006;4.720;2023-02-19T12:59:52;102422.22;;;10.51;100.00
18436;BME280;9346;52.006;4.720;2023-02-19T13:02:26;102426.75;;;10.46;100.00
18436;BME280;9346;52.006;4.720;2023-02-19T13:05:00;102430.59;;;10.45;100.00
18436;BME280;9346;52.006;4.720;2023-02-19T13:07:32;102446.28;;;10.44;100.00
18436;BME280;9346;52.006;4.720;2023-02-19T13:10:13;102449.38;;;10.36;100.00
18436;BME280;9346;52.006;4.720;2023-02-19T13:12:44;102447.56;;;10.30;100.00
18436;BME280;9346;52.006;4.720;2023-02-19T13:15:15;102452.44;;;10.28;100.00
18436;BME280;9346;52.006;4.720;2023-02-19T13:17:44;102456.75;;;10.24;100.00
18436;BME280;9346;52.006;4.720;2023-02-19T13:20:24;102454.69;;;10.20;100.00
18436;BME280;9346;52.006;4.720;2023-02-19T13:22:58;102449.25;;;10.13;100.00